createdAt,value
2023-01-01T00:00:49.527Z,15.34
2023-01-01T00:03:18.694Z,15.26
2023-01-01T00:05:46.547Z,15.35
2023-01-01T00:08:14.623Z,15.34
2023-01-01T00:10:43.793Z,15.27
2023-01-01T00:13:14.378Z,15.31
2023-01-01T00:15:42.940Z,15.30
2023-01-01T00:18:10.862Z,15.46
2023-01-01T00:20:39.227Z,15.27
2023-01-01T00:23:07.332Z,15.17
2023-01-01T00:25:35.658Z,15.09
2023-01-01T00:28:05.314Z,15.04
2023-01-01T00:30:33.603Z,15.04
2023-01-01T00:33:01.439Z,14.99
2023-01-01T00:35:29.671Z,14.88
2023-01-01T00:37:58.180Z,14.81
2023-01-01T00:40:28.787Z,14.75
2023-01-01T00:42:56.927Z,14.68
2023-01-01T00:45:28.390Z,14.65
2023-01-01T00:47:56.364Z,14.56
2023-01-01T00:50:24.426Z,14.50
2023-01-01T00:52:53.033Z,14.50
2023-01-01T00:55:21.035Z,14.44
2023-01-01T00:57:49.409Z,14.35
2023-01-01T01:00:22.136Z,14.30
2023-01-01T01:02:52.201Z,14.28
2023-01-01T01:05:20.206Z,14.24
2023-01-01T01:07:48.216Z,14.13
2023-01-01T01:10:16.865Z,14.06
2023-01-01T01:12:45.296Z,14.01
2023-01-01T01:15:13.528Z,13.91
2023-01-01T01:17:43.881Z,13.86
2023-01-01T01:20:14.096Z,13.83
2023-01-01T01:22:42.006Z,13.78
2023-01-01T01:25:11.062Z,13.72
2023-01-01T01:27:41.295Z,13.67
2023-01-01T01:30:09.918Z,13.62
2023-01-01T01:32:37.933Z,13.54
2023-01-01T01:35:06.887Z,13.49
2023-01-01T01:37:36.463Z,13.43
2023-01-01T01:40:05.156Z,13.40
2023-01-01T01:42:33.037Z,13.36
2023-01-01T01:45:06.987Z,13.34
2023-01-01T01:47:39.478Z,13.32
2023-01-01T01:50:12.531Z,13.27
2023-01-01T01:52:48.685Z,13.22
2023-01-01T01:55:16.763Z,13.17
2023-01-01T01:57:44.648Z,13.15
2023-01-01T02:00:14.354Z,13.08
2023-01-01T02:02:49.343Z,13.05
2023-01-01T02:05:19.821Z,12.99
2023-01-01T02:07:53.545Z,12.88
2023-01-01T02:10:21.974Z,12.87
2023-01-01T02:12:52.045Z,12.85
2023-01-01T02:15:20.340Z,12.82
2023-01-01T02:18:00.144Z,12.94
2023-01-01T02:20:40.342Z,12.95
2023-01-01T02:23:25.985Z,12.94
2023-01-01T02:26:18.021Z,12.98
2023-01-01T02:28:56.836Z,12.90
2023-01-01T02:31:29.024Z,12.90
2023-01-01T02:34:02.629Z,12.90
2023-01-01T02:36:33.743Z,12.84
2023-01-01T02:39:05.198Z,12.82
2023-01-01T02:41:40.626Z,12.81
2023-01-01T02:44:10.335Z,12.80
2023-01-01T02:46:38.455Z,12.78
2023-01-01T02:49:10.821Z,12.75
2023-01-01T02:51:56.842Z,12.68
2023-01-01T02:54:34.346Z,12.62
2023-01-01T02:57:10.420Z,12.54
2023-01-01T03:00:14.714Z,12.48
2023-01-01T03:02:54.050Z,12.42
2023-01-01T03:05:31.721Z,12.40
2023-01-01T03:08:14.552Z,12.33
2023-01-01T03:10:51.856Z,12.31
2023-01-01T03:13:29.360Z,12.27
2023-01-01T03:16:04.523Z,12.24
2023-01-01T03:18:38.315Z,12.21
2023-01-01T03:21:09.203Z,12.19
2023-01-01T03:23:44.493Z,12.18
2023-01-01T03:26:18.999Z,12.10
2023-01-01T03:28:52.933Z,12.04
2023-01-01T03:31:26.887Z,11.97
2023-01-01T03:34:01.577Z,11.85
2023-01-01T03:36:35.412Z,11.67
2023-01-01T03:39:09.222Z,11.60
2023-01-01T03:41:41.693Z,11.57
2023-01-01T03:44:14.425Z,11.57
2023-01-01T03:46:44.464Z,11.58
2023-01-01T03:49:13.640Z,11.55
2023-01-01T03:51:58.396Z,11.48
2023-01-01T03:54:37.784Z,11.35
2023-01-01T03:57:14.203Z,11.36
2023-01-01T03:59:51.073Z,11.38
2023-01-01T04:02:25.488Z,11.38
2023-01-01T04:04:53.860Z,11.42
2023-01-01T04:07:25.052Z,11.47
2023-01-01T04:09:55.457Z,11.46
2023-01-01T04:12:23.703Z,11.48
2023-01-01T04:14:51.589Z,11.47
2023-01-01T04:17:21.386Z,11.48
2023-01-01T04:19:54.877Z,11.48
2023-01-01T04:22:23.456Z,11.49
2023-01-01T04:24:52.053Z,11.46
2023-01-01T04:27:20.964Z,11.39
2023-01-01T04:29:48.833Z,11.33
2023-01-01T04:32:16.878Z,11.30
2023-01-01T04:34:45.998Z,11.32
2023-01-01T04:37:16.268Z,11.32
2023-01-01T04:39:44.285Z,11.34
2023-01-01T04:42:14.519Z,11.34
2023-01-01T04:44:42.481Z,11.40
2023-01-01T04:47:10.987Z,11.40
2023-01-01T04:49:38.957Z,11.38
2023-01-01T04:52:08.471Z,11.34
2023-01-01T04:54:36.357Z,11.28
2023-01-01T04:57:04.337Z,11.20
2023-01-01T04:59:32.498Z,11.10
2023-01-01T05:02:03.254Z,11.07
2023-01-01T05:04:31.327Z,11.06
2023-01-01T05:06:59.300Z,11.05
2023-01-01T05:09:28.770Z,10.95
2023-01-01T05:11:57.002Z,10.93
2023-01-01T05:14:25.033Z,10.93
2023-01-01T05:16:54.282Z,10.95
2023-01-01T05:19:22.431Z,10.99
2023-01-01T05:21:50.268Z,11.02
2023-01-01T05:24:18.136Z,11.12
2023-01-01T05:26:47.409Z,11.22
2023-01-01T05:29:17.213Z,11.26
2023-01-01T05:31:46.476Z,11.37
2023-01-01T05:34:14.594Z,11.38
2023-01-01T05:36:42.505Z,11.39
2023-01-01T05:39:12.824Z,11.39
2023-01-01T05:41:41.075Z,11.40
2023-01-01T05:44:11.646Z,11.35
2023-01-01T05:46:40.908Z,11.37
2023-01-01T05:49:11.652Z,11.47
2023-01-01T05:56:37.639Z,11.78
2023-01-01T05:59:05.899Z,11.86
2023-01-01T06:01:45.169Z,11.86
2023-01-01T06:04:14.496Z,11.90
2023-01-01T06:06:42.564Z,11.98
2023-01-01T06:09:11.119Z,12.19
2023-01-01T06:11:39.079Z,12.28
2023-01-01T06:14:07.425Z,12.34
2023-01-01T06:16:35.350Z,12.37
2023-01-01T06:19:04.821Z,12.42
2023-01-01T06:21:32.738Z,12.69
2023-01-01T06:24:01.032Z,12.63
2023-01-01T06:26:31.095Z,12.58
2023-01-01T06:29:30.391Z,12.89
2023-01-01T06:31:58.481Z,12.88
2023-01-01T06:34:27.821Z,12.99
2023-01-01T06:37:06.443Z,13.12
2023-01-01T06:39:35.205Z,13.08
2023-01-01T06:42:03.092Z,13.24
2023-01-01T06:44:32.415Z,13.16
2023-01-01T06:47:00.359Z,13.07
2023-01-01T06:49:29.895Z,13.07
2023-01-01T06:51:57.928Z,13.07
2023-01-01T06:54:25.874Z,13.15
2023-01-01T06:56:53.960Z,13.22
2023-01-01T06:59:21.825Z,13.27
2023-01-01T07:01:49.868Z,13.31
2023-01-01T07:04:18.273Z,13.38
2023-01-01T07:06:47.599Z,13.44
2023-01-01T07:09:15.882Z,13.56
2023-01-01T07:11:43.827Z,13.60
2023-01-01T07:14:11.682Z,13.65
2023-01-01T07:16:41.760Z,13.74
2023-01-01T07:19:09.747Z,13.79
2023-01-01T07:21:43.722Z,13.73
2023-01-01T07:24:16.152Z,13.73
2023-01-01T07:26:47.385Z,13.91
2023-01-01T07:29:15.776Z,13.89
2023-01-01T07:31:45.458Z,13.81
2023-01-01T07:34:16.887Z,13.80
2023-01-01T07:36:44.859Z,13.80
2023-01-01T07:39:14.819Z,13.74
2023-01-01T07:41:46.122Z,13.92
2023-01-01T07:44:14.672Z,13.96
2023-01-01T07:46:43.123Z,13.88
2023-01-01T07:49:11.326Z,13.80
2023-01-01T07:51:41.886Z,13.80
2023-01-01T07:54:09.800Z,13.90
2023-01-01T07:56:39.132Z,14.00
2023-01-01T07:59:07.030Z,14.01
2023-01-01T08:01:37.758Z,13.95
2023-01-01T08:04:07.079Z,13.96
2023-01-01T08:06:35.142Z,13.99
2023-01-01T08:09:03.565Z,13.96
2023-01-01T08:11:31.473Z,14.00
2023-01-01T08:14:01.354Z,13.99
2023-01-01T08:16:29.373Z,14.12
2023-01-01T08:19:01.091Z,14.15
2023-01-01T08:21:29.095Z,14.29
2023-01-01T08:23:57.465Z,14.31
2023-01-01T08:26:30.753Z,14.32
2023-01-01T08:29:00.853Z,14.32
2023-01-01T08:31:29.126Z,14.42
2023-01-01T08:33:57.269Z,14.43
2023-01-01T08:36:26.257Z,14.45
2023-01-01T08:38:54.219Z,14.48
2023-01-01T08:41:22.977Z,14.48
2023-01-01T08:43:51.122Z,14.55
2023-01-01T08:46:20.673Z,14.66
2023-01-01T08:48:48.649Z,14.71
2023-01-01T08:51:19.318Z,14.74
2023-01-01T08:53:53.120Z,14.83
2023-01-01T08:56:21.795Z,14.87
2023-01-01T08:58:50.044Z,14.91
2023-01-01T09:01:18.518Z,14.98
2023-01-01T09:03:48.107Z,15.05
2023-01-01T09:06:16.409Z,15.08
2023-01-01T09:08:44.561Z,15.14
2023-01-01T09:11:23.691Z,15.26
2023-01-01T09:13:51.679Z,15.28
2023-01-01T09:16:20.367Z,15.32
2023-01-01T09:18:52.411Z,15.37
2023-01-01T09:21:20.683Z,15.39
2023-01-01T09:23:48.745Z,15.44
2023-01-01T09:26:16.893Z,15.52
2023-01-01T09:28:44.849Z,15.63
2023-01-01T09:31:12.748Z,15.73
2023-01-01T09:33:40.839Z,15.69
2023-01-01T09:36:28.546Z,15.73
2023-01-01T09:38:58.577Z,15.84
2023-01-01T09:41:42.650Z,15.88
2023-01-01T09:44:30.504Z,15.88
2023-01-01T09:47:05.344Z,15.84
2023-01-01T09:49:37.985Z,15.80
2023-01-01T09:52:07.493Z,15.71
2023-01-01T09:54:39.082Z,15.79
2023-01-01T09:57:19.817Z,15.81
2023-01-01T09:59:50.779Z,15.81
2023-01-01T10:02:39.878Z,15.86
2023-01-01T10:05:22.254Z,15.93
2023-01-01T10:08:01.682Z,16.00
2023-01-01T10:10:39.468Z,15.95
2023-01-01T10:13:18.477Z,16.01
2023-01-01T10:15:56.474Z,16.04
2023-01-01T10:18:30.675Z,15.99
2023-01-01T10:21:04.891Z,15.98
2023-01-01T10:23:43.211Z,15.91
2023-01-01T10:26:17.306Z,15.94
2023-01-01T10:28:56.221Z,15.96
2023-01-01T10:31:32.192Z,16.10
2023-01-01T10:34:02.706Z,16.10
2023-01-01T10:36:33.279Z,16.08
2023-01-01T10:39:03.918Z,16.07
2023-01-01T10:41:32.580Z,16.09
2023-01-01T10:44:00.801Z,16.15
2023-01-01T10:46:32.384Z,16.20
2023-01-01T10:49:11.050Z,16.18
2023-01-01T10:51:45.736Z,16.26
2023-01-01T10:54:36.440Z,16.23
2023-01-01T10:57:31.611Z,16.11
2023-01-01T11:00:24.458Z,16.27
2023-01-01T11:03:14.650Z,16.26
2023-01-01T11:06:02.857Z,16.12
2023-01-01T11:08:32.309Z,16.02
2023-01-01T11:11:03.261Z,16.09
2023-01-01T11:13:35.195Z,16.08
2023-01-01T11:16:03.220Z,16.13
2023-01-01T11:18:35.910Z,16.20
2023-01-01T11:21:08.296Z,16.25
2023-01-01T11:23:40.938Z,16.45
2023-01-01T11:26:26.875Z,16.53
2023-01-01T11:29:03.148Z,16.54
2023-01-01T11:31:36.925Z,16.59
2023-01-01T11:34:27.054Z,16.80
2023-01-01T11:37:08.945Z,16.95
2023-01-01T11:39:38.633Z,16.90
2023-01-01T11:42:08.407Z,16.89
2023-01-01T11:44:40.905Z,16.83
2023-01-01T11:47:23.647Z,16.97
2023-01-01T11:49:57.086Z,17.01
2023-01-01T11:52:36.159Z,16.93
2023-01-01T11:55:13.984Z,16.89
2023-01-01T11:57:58.323Z,16.79
2023-01-01T12:00:26.450Z,16.81
2023-01-01T12:03:00.986Z,16.77
2023-01-01T12:05:43.529Z,16.74
2023-01-01T12:08:16.721Z,16.72
2023-01-01T12:10:52.797Z,16.64
2023-01-01T12:13:26.676Z,16.58
2023-01-01T12:16:05.068Z,16.59
2023-01-01T12:18:38.488Z,16.54
2023-01-01T12:21:12.107Z,16.52
2023-01-01T12:23:41.126Z,16.60
2023-01-01T12:26:22.716Z,16.58
2023-01-01T12:29:19.401Z,16.50
2023-01-01T12:32:06.256Z,16.53
2023-01-01T12:34:44.806Z,16.63
2023-01-01T12:37:26.308Z,16.66
2023-01-01T12:40:29.619Z,16.59
2023-01-01T12:43:03.525Z,16.62
2023-01-01T12:46:09.388Z,16.66
2023-01-01T12:49:01.629Z,16.77
2023-01-01T12:51:42.107Z,16.72
2023-01-01T12:54:41.478Z,16.75
2023-01-01T12:57:15.088Z,16.70
2023-01-01T12:59:52.019Z,16.71
2023-01-01T13:02:26.246Z,16.65
2023-01-01T13:04:57.877Z,16.54
2023-01-01T13:07:31.139Z,16.57
2023-01-01T13:10:19.985Z,16.67
2023-01-01T13:12:48.748Z,16.61
2023-01-01T13:15:36.556Z,16.65
2023-01-01T13:18:08.041Z,16.66
2023-01-01T13:20:40.278Z,16.71
2023-01-01T13:23:45.221Z,16.78
2023-01-01T13:26:33.089Z,16.82
2023-01-01T13:29:44.178Z,16.79
2023-01-01T13:32:14.119Z,16.80
2023-01-01T13:35:01.428Z,16.88
2023-01-01T13:37:48.170Z,16.80
2023-01-01T13:40:50.970Z,16.94
2023-01-01T13:43:31.173Z,16.89
2023-01-01T13:46:12.707Z,16.69
2023-01-01T13:49:16.825Z,16.75
2023-01-01T13:52:07.886Z,16.59
2023-01-01T13:55:13.122Z,16.48
2023-01-01T13:58:04.159Z,16.37
2023-01-01T14:00:49.864Z,16.38
2023-01-01T14:03:19.860Z,16.38
2023-01-01T14:05:51.462Z,16.39
2023-01-01T14:08:40.460Z,16.32
2023-01-01T14:11:20.991Z,16.32
2023-01-01T14:13:49.083Z,16.36
2023-01-01T14:16:17.544Z,16.54
2023-01-01T14:18:47.559Z,16.48
2023-01-01T14:21:19.678Z,16.30
2023-01-01T14:23:53.720Z,16.33
2023-01-01T14:26:24.181Z,16.29
2023-01-01T14:28:55.928Z,16.24
2023-01-01T14:31:27.873Z,16.15
2023-01-01T14:33:55.969Z,16.14
2023-01-01T14:36:25.591Z,16.15
2023-01-01T14:38:56.435Z,16.14
2023-01-01T14:41:29.878Z,16.16
2023-01-01T14:44:08.665Z,16.08
2023-01-01T14:46:41.371Z,16.14
2023-01-01T14:49:11.500Z,15.98
2023-01-01T14:51:45.348Z,16.03
2023-01-01T14:54:20.713Z,15.94
2023-01-01T14:56:51.014Z,15.88
2023-01-01T14:59:24.624Z,15.87
2023-01-01T15:02:00.418Z,15.83
2023-01-01T15:04:31.626Z,15.81
2023-01-01T15:07:00.873Z,15.78
2023-01-01T15:09:32.648Z,15.71
2023-01-01T15:12:02.515Z,15.63
2023-01-01T15:14:33.871Z,15.63
2023-01-01T15:17:06.603Z,15.64
2023-01-01T15:19:36.524Z,15.59
2023-01-01T15:22:10.832Z,15.58
2023-01-01T15:24:40.747Z,15.56
2023-01-01T15:27:18.387Z,15.50
2023-01-01T15:29:48.265Z,15.52
2023-01-01T15:32:16.882Z,15.68
2023-01-01T15:34:50.083Z,15.65
2023-01-01T15:37:21.959Z,15.45
2023-01-01T15:39:53.140Z,15.37
2023-01-01T15:42:33.134Z,15.32
2023-01-01T15:45:22.722Z,15.28
2023-01-01T15:47:52.553Z,15.27
2023-01-01T15:50:24.918Z,15.24
2023-01-01T15:52:56.907Z,15.19
2023-01-01T15:55:31.897Z,15.16
2023-01-01T15:58:00.644Z,15.15
2023-01-01T16:00:33.121Z,15.13
2023-01-01T16:03:05.120Z,15.13
2023-01-01T16:05:33.114Z,15.12
2023-01-01T16:08:02.856Z,15.12
2023-01-01T16:10:33.018Z,15.10
2023-01-01T16:13:00.883Z,15.06
2023-01-01T16:15:28.984Z,14.98
2023-01-01T16:17:56.983Z,14.99
2023-01-01T16:20:25.397Z,15.00
2023-01-01T16:22:55.865Z,14.96
2023-01-01T16:25:24.306Z,14.99
2023-01-01T16:27:53.631Z,14.93
2023-01-01T16:30:26.413Z,14.96
2023-01-01T16:32:54.546Z,15.01
2023-01-01T16:35:22.417Z,14.96
2023-01-01T16:37:50.487Z,14.93
2023-01-01T16:40:18.436Z,14.91
2023-01-01T16:42:46.430Z,14.87
2023-01-01T16:45:19.646Z,14.84
2023-01-01T16:47:47.719Z,14.83
2023-01-01T16:50:15.953Z,14.77
2023-01-01T16:52:45.144Z,14.75
2023-01-01T16:55:13.483Z,14.72
2023-01-01T16:57:43.342Z,14.72
2023-01-01T17:00:12.777Z,14.70
2023-01-01T17:02:42.644Z,14.67
2023-01-01T17:05:11.737Z,14.68
2023-01-01T17:07:42.090Z,14.72
2023-01-01T17:10:10.312Z,14.71
2023-01-01T17:12:38.395Z,14.67
2023-01-01T17:15:07.503Z,14.61
2023-01-01T17:17:40.219Z,14.60
2023-01-01T17:20:10.234Z,14.59
2023-01-01T17:22:38.583Z,14.55
2023-01-01T17:25:07.742Z,14.56
2023-01-01T17:27:36.220Z,14.55
2023-01-01T17:30:04.710Z,14.54
2023-01-01T17:32:34.975Z,14.51
2023-01-01T17:35:03.533Z,14.44
2023-01-01T17:37:33.470Z,14.40
2023-01-01T17:40:01.668Z,14.42
2023-01-01T17:42:29.816Z,14.37
2023-01-01T17:44:57.820Z,14.38
2023-01-01T17:47:32.634Z,14.39
2023-01-01T17:50:01.331Z,14.41
2023-01-01T17:52:33.043Z,14.40
2023-01-01T17:55:01.039Z,14.40
2023-01-01T17:57:29.571Z,14.41
2023-01-01T17:59:59.349Z,14.41
2023-01-01T18:02:27.559Z,14.38
2023-01-01T18:04:58.847Z,14.35
2023-01-01T18:07:26.762Z,14.39
2023-01-01T18:10:01.148Z,14.40
2023-01-01T18:12:32.273Z,14.40
2023-01-01T18:15:00.300Z,14.41
2023-01-01T18:17:28.117Z,14.44
2023-01-01T18:19:56.110Z,14.44
2023-01-01T18:22:24.327Z,14.43
2023-01-01T18:24:52.668Z,14.41
2023-01-01T18:27:22.051Z,14.39
2023-01-01T18:29:50.097Z,14.37
2023-01-01T18:32:17.960Z,14.32
2023-01-01T18:34:45.980Z,14.28
2023-01-01T18:37:14.028Z,14.26
2023-01-01T18:39:43.397Z,14.23
2023-01-01T18:42:22.570Z,14.25
2023-01-01T18:44:51.913Z,14.31
2023-01-01T18:47:24.861Z,14.34
2023-01-01T18:49:56.531Z,14.34
2023-01-01T18:52:26.250Z,14.37
2023-01-01T18:55:03.274Z,14.39
2023-01-01T18:57:32.537Z,14.38
2023-01-01T19:00:16.089Z,14.37
2023-01-01T19:02:46.293Z,14.40
2023-01-01T19:05:19.547Z,14.33
2023-01-01T19:07:52.851Z,14.30
2023-01-01T19:10:23.167Z,14.29
2023-01-01T19:12:54.821Z,14.25
2023-01-01T19:15:24.567Z,14.22
2023-01-01T19:17:56.188Z,14.21
2023-01-01T19:20:25.628Z,14.20
2023-01-01T19:22:57.602Z,14.23
2023-01-01T19:25:38.920Z,14.19
2023-01-01T19:28:33.562Z,14.23
2023-01-01T19:31:06.857Z,14.24
2023-01-01T19:33:34.805Z,14.25
2023-01-01T19:36:04.502Z,14.42
2023-01-01T19:38:32.873Z,14.36
2023-01-01T19:41:00.846Z,14.29
2023-01-01T19:43:30.792Z,14.27
2023-01-01T19:46:05.855Z,14.23
2023-01-01T19:48:35.259Z,14.17
2023-01-01T19:51:03.103Z,14.17
2023-01-01T19:53:31.173Z,14.18
2023-01-01T19:55:59.646Z,14.12
2023-01-01T19:58:27.782Z,14.16
2023-01-01T20:00:55.977Z,14.14
2023-01-01T20:03:52.874Z,14.09
2023-01-01T20:06:18.372Z,14.08
2023-01-01T20:08:46.359Z,14.10
2023-01-01T20:11:15.325Z,14.10
2023-01-01T20:13:43.790Z,14.08
2023-01-01T20:16:11.833Z,14.08
2023-01-01T20:18:48.050Z,14.04
2023-01-01T20:21:33.750Z,14.03
2023-01-01T20:24:03.292Z,14.01
2023-01-01T20:26:31.351Z,14.01
2023-01-01T20:29:18.325Z,14.04
2023-01-01T20:31:46.676Z,14.04
2023-01-01T20:34:16.378Z,14.06
2023-01-01T20:37:05.562Z,14.08
2023-01-01T20:39:37.558Z,14.04
2023-01-01T20:42:06.349Z,14.05
2023-01-01T20:44:35.781Z,14.08
2023-01-01T20:47:03.808Z,14.08
2023-01-01T20:49:34.091Z,14.14
2023-01-01T20:52:02.219Z,14.13
2023-01-01T20:54:32.522Z,14.17
2023-01-01T20:57:00.610Z,14.15
2023-01-01T20:59:37.806Z,14.13
2023-01-01T21:02:08.693Z,14.12
2023-01-01T21:04:40.278Z,14.07
2023-01-01T21:07:11.298Z,14.07
2023-01-01T21:09:40.470Z,14.09
2023-01-01T21:12:09.443Z,14.04
2023-01-01T21:14:37.769Z,14.05
2023-01-01T21:17:20.948Z,14.05
2023-01-01T21:19:54.875Z,14.01
2023-01-01T21:22:23.031Z,14.03
2023-01-01T21:24:54.375Z,14.08
2023-01-01T21:27:33.050Z,14.01
2023-01-01T21:30:02.466Z,13.98
2023-01-01T21:32:41.636Z,13.97
2023-01-01T21:35:22.652Z,13.99
2023-01-01T21:37:55.737Z,13.96
2023-01-01T21:40:39.673Z,13.96
2023-01-01T21:43:23.136Z,13.96
2023-01-01T21:45:51.655Z,13.98
2023-01-01T21:48:24.721Z,14.00
2023-01-01T21:50:54.315Z,13.98
2023-01-01T21:53:29.109Z,13.93
2023-01-01T21:55:58.145Z,13.94
2023-01-01T21:58:46.023Z,13.94
2023-01-01T22:01:19.973Z,13.88
2023-01-01T22:03:52.644Z,13.87
2023-01-01T22:06:23.529Z,13.83
2023-01-01T22:08:53.268Z,13.81
2023-01-01T22:11:27.638Z,13.77
2023-01-01T22:13:58.139Z,13.71
2023-01-01T22:16:29.835Z,13.65
2023-01-01T22:19:01.234Z,13.66
2023-01-01T22:21:36.999Z,13.63
2023-01-01T22:24:20.797Z,13.65
2023-01-01T22:26:55.258Z,13.67
2023-01-01T22:29:25.897Z,13.66
2023-01-01T22:32:00.817Z,13.68
2023-01-01T22:34:29.611Z,13.68
2023-01-01T22:37:03.685Z,13.67
2023-01-01T22:39:36.099Z,13.69
2023-01-01T22:42:04.628Z,13.67
2023-01-01T22:44:35.804Z,13.73
2023-01-01T22:47:04.264Z,13.75
2023-01-01T22:49:38.991Z,13.76
2023-01-01T22:52:12.147Z,13.77
2023-01-01T22:54:40.525Z,13.80
2023-01-01T22:57:08.548Z,13.78
2023-01-01T22:59:36.475Z,13.79
2023-01-01T23:02:06.663Z,13.82
2023-01-01T23:04:34.716Z,13.81
2023-01-01T23:07:04.178Z,13.80
2023-01-01T23:09:35.750Z,13.83
2023-01-01T23:12:03.751Z,13.83
2023-01-01T23:14:49.316Z,13.79
2023-01-01T23:17:17.454Z,13.78
2023-01-01T23:19:45.768Z,13.79
2023-01-01T23:22:15.385Z,13.77
2023-01-01T23:24:45.905Z,13.75
2023-01-01T23:27:16.373Z,13.75
2023-01-01T23:29:47.573Z,13.72
2023-01-01T23:32:16.137Z,13.68
2023-01-01T23:34:45.487Z,13.63
2023-01-01T23:37:15.010Z,13.59
2023-01-01T23:39:44.348Z,13.58
2023-01-01T23:42:13.030Z,13.60
2023-01-01T23:44:41.267Z,13.63
2023-01-01T23:47:10.783Z,13.67
2023-01-01T23:49:39.333Z,13.68
2023-01-01T23:52:10.967Z,13.67
2023-01-01T23:54:39.088Z,13.66
2023-01-01T23:57:08.450Z,13.65
2023-01-01T23:59:36.378Z,13.63
